Time;durP1;ratioP1;P1;durP2;ratioP2;P2;SDS_P1;SDS_P2;PMS_P1;PMS_P2;Temp;Humidity;BMP_temperature;BMP_pressure;BME280_temperature;BME280_humidity;BME280_pressure;Samples;Min_cycle;Max_cycle;Signal;HPM_P1;HPM_P2
2022/01/08 00:02:09;;;;;;;11.27;5.97;;;1.40;99.90;;;;;;5147272;27;20046;-79
2022/01/08 00:04:36;;;;;;;13.52;6.25;;;1.30;99.90;;;;;;5128948;27;20049;-79
2022/01/08 00:07:02;;;;;;;14.13;6.28;;;1.30;99.90;;;;;;5121569;27;20045;-79
2022/01/08 00:09:29;;;;;;;19.88;7.28;;;1.30;99.90;;;;;;5125810;27;20043;-78
2022/01/08 00:11:55;;;;;;;20.23;6.78;;;1.30;99.90;;;;;;5148641;27;20043;-78
2022/01/08 00:14:24;;;;;;;13.27;6.97;;;1.30;99.90;;;;;;5120633;27;20057;-79
2022/01/08 00:16:51;;;;;;;12.45;7.20;;;1.30;99.90;;;;;;5128147;27;20039;-79
2022/01/08 00:19:17;;;;;;;13.07;8.30;;;1.20;99.90;;;;;;5148882;27;20112;-79
2022/01/08 00:21:44;;;;;;;14.30;7.88;;;1.20;99.90;;;;;;5142198;27;20441;-79
2022/01/08 00:24:11;;;;;;;15.38;7.75;;;1.20;99.90;;;;;;5122506;27;20634;-79
2022/01/08 00:26:37;;;;;;;12.85;7.55;;;1.20;99.90;;;;;;5128416;27;20069;-79
2022/01/08 00:29:04;;;;;;;11.18;7.03;;;1.20;99.90;;;;;;5148786;27;20035;-78
2022/01/08 00:31:31;;;;;;;18.35;8.23;;;1.20;99.90;;;;;;5142778;27;20078;-79
2022/01/08 00:33:57;;;;;;;12.68;6.88;;;1.20;99.90;;;;;;5131268;27;20047;-79
2022/01/08 00:36:24;;;;;;;16.52;6.85;;;1.20;99.90;;;;;;5145968;27;20064;-78
2022/01/08 00:38:50;;;;;;;11.20;7.00;;;1.20;99.90;;;;;;5130411;27;20050;-78
2022/01/08 00:41:17;;;;;;;11.48;6.28;;;1.20;99.90;;;;;;5148869;27;20047;-78
2022/01/08 00:43:43;;;;;;;11.93;6.18;;;1.20;99.90;;;;;;5127262;27;20054;-79
2022/01/08 00:46:10;;;;;;;11.80;6.32;;;1.20;99.90;;;;;;5142354;27;20051;-79
2022/01/08 00:48:36;;;;;;;11.65;5.07;;;1.20;99.90;;;;;;5119904;27;20539;-79
2022/01/08 00:51:03;;;;;;;7.13;5.18;;;1.30;99.90;;;;;;5143775;27;20076;-79
2022/01/08 00:53:29;;;;;;;8.45;4.88;;;1.20;99.90;;;;;;5122765;27;20103;-79
2022/01/08 00:55:56;;;;;;;10.23;5.13;;;1.20;99.90;;;;;;5140216;27;20051;-78
2022/01/08 00:58:23;;;;;;;5.60;4.47;;;1.20;99.90;;;;;;5144934;27;20039;-78
2022/01/08 01:00:49;;;;;;;8.75;4.43;;;1.20;99.90;;;;;;5145959;27;20117;-78
2022/01/08 01:03:16;;;;;;;11.27;4.80;;;1.20;99.90;;;;;;5129972;27;20039;-79
2022/01/08 01:05:42;;;;;;;9.65;3.90;;;1.20;99.90;;;;;;5141594;27;20058;-78
2022/01/08 01:08:09;;;;;;;10.40;4.82;;;1.20;99.90;;;;;;5127703;27;20409;-78
2022/01/08 01:10:35;;;;;;;6.93;4.18;;;1.10;99.90;;;;;;5126199;27;20047;-78
2022/01/08 01:13:02;;;;;;;10.95;4.35;;;1.10;99.90;;;;;;5124246;27;20050;-79
2022/01/08 01:15:29;;;;;;;8.45;4.10;;;1.10;99.90;;;;;;5125687;27;20467;-79
2022/01/08 01:17:55;;;;;;;5.80;4.30;;;1.10;99.90;;;;;;5148195;27;20049;-79
2022/01/08 01:20:22;;;;;;;7.32;4.32;;;1.10;99.90;;;;;;5122073;27;20042;-78
2022/01/08 01:22:54;;;;;;;13.18;4.85;;;1.10;99.90;;;;;;5129434;27;20042;-79
2022/01/08 01:25:26;;;;;;;6.85;4.05;;;1.10;99.90;;;;;;5127940;27;20045;-78
2022/01/08 01:28:00;;;;;;;9.95;4.97;;;1.10;99.90;;;;;;5148080;27;20121;-78
2022/01/08 01:30:50;;;;;;;11.95;5.07;;;1.20;99.90;;;;;;5131820;27;20034;-79
2022/01/08 01:41:38;;;;;;;5.88;4.78;;;1.00;99.90;;;;;;5125590;27;20055;-79
2022/01/08 01:47:02;;;;;;;6.68;4.13;;;1.00;99.90;;;;;;5146371;27;20066;-79
2022/01/08 01:49:29;;;;;;;6.43;4.00;;;1.00;99.90;;;;;;5149555;27;20081;-79
2022/01/08 01:51:56;;;;;;;10.00;4.40;;;1.00;99.90;;;;;;5120707;27;20107;-79
2022/01/08 01:54:22;;;;;;;7.47;3.95;;;1.00;99.90;;;;;;5124497;27;20104;-79
2022/01/08 01:56:49;;;;;;;9.80;4.22;;;1.00;99.90;;;;;;5118992;27;20051;-79
2022/01/08 01:59:15;;;;;;;4.63;3.97;;;1.00;99.90;;;;;;5119052;27;20054;-79
2022/01/08 02:01:42;;;;;;;5.65;4.00;;;0.90;99.90;;;;;;5143118;27;20053;-79
2022/01/08 02:04:08;;;;;;;14.45;5.15;;;1.00;99.90;;;;;;5138875;27;20050;-79
2022/01/08 02:06:35;;;;;;;9.23;4.28;;;0.90;99.90;;;;;;5148860;27;20063;-79
2022/01/08 02:09:01;;;;;;;6.85;4.43;;;0.90;99.90;;;;;;5119436;27;20508;-79
2022/01/08 02:11:28;;;;;;;8.88;4.75;;;1.00;99.90;;;;;;5134415;27;20050;-79
2022/01/08 02:13:55;;;;;;;8.77;3.67;;;1.00;99.90;;;;;;5128480;27;20054;-79
2022/01/08 02:16:21;;;;;;;7.25;4.22;;;1.00;99.90;;;;;;5149518;27;20050;-79
2022/01/08 02:18:48;;;;;;;6.75;3.90;;;1.00;99.90;;;;;;5130462;27;20054;-79
2022/01/08 02:21:14;;;;;;;7.40;4.40;;;1.00;99.90;;;;;;5126902;27;20047;-79
2022/01/08 02:23:41;;;;;;;16.50;4.80;;;1.10;99.90;;;;;;5133623;27;20046;-79
2022/01/08 02:26:07;;;;;;;11.70;4.35;;;1.10;99.90;;;;;;5124711;27;20043;-79
2022/01/08 02:28:34;;;;;;;8.23;4.65;;;1.20;99.90;;;;;;5126126;27;20440;-79
2022/01/08 02:31:00;;;;;;;9.02;4.75;;;1.20;99.90;;;;;;5125543;27;20477;-79
2022/01/08 02:33:27;;;;;;;6.55;4.53;;;1.30;99.90;;;;;;5139174;27;20051;-79
2022/01/08 02:35:53;;;;;;;8.73;5.28;;;1.30;99.90;;;;;;5123728;27;20043;-79
2022/01/08 02:38:20;;;;;;;9.77;4.50;;;1.30;99.90;;;;;;5141277;27;20047;-79
2022/01/08 02:40:52;;;;;;;21.88;5.50;;;1.30;99.90;;;;;;5136292;27;20050;-78
2022/01/08 02:43:18;;;;;;;13.85;5.40;;;1.20;99.90;;;;;;5143058;27;20058;-79
2022/01/08 02:45:45;;;;;;;5.85;4.80;;;1.30;99.90;;;;;;5124936;27;20055;-79
2022/01/08 02:48:11;;;;;;;17.20;5.55;;;1.30;99.90;;;;;;5121354;27;20055;-78
2022/01/08 02:50:38;;;;;;;9.52;5.32;;;1.30;99.90;;;;;;5124488;27;20051;-79
2022/01/08 02:53:04;;;;;;;12.18;5.32;;;1.30;99.90;;;;;;5120651;27;20047;-79
2022/01/08 02:55:31;;;;;;;12.18;5.15;;;1.30;99.90;;;;;;5121297;27;20050;-79
2022/01/08 02:57:57;;;;;;;9.32;5.72;;;1.30;99.90;;;;;;5129377;27;20043;-79
2022/01/08 03:00:24;;;;;;;12.48;5.93;;;1.30;99.90;;;;;;5115671;27;20047;-80
2022/01/08 03:02:51;;;;;;;16.80;5.63;;;1.30;99.90;;;;;;5122910;27;20055;-79
2022/01/08 03:05:17;;;;;;;8.40;5.47;;;1.30;99.90;;;;;;5123452;27;20053;-80
2022/01/08 03:07:44;;;;;;;9.60;5.45;;;1.30;99.90;;;;;;5142956;27;20050;-79
2022/01/08 03:10:10;;;;;;;9.13;5.05;;;1.30;99.90;;;;;;5145966;27;20044;-80
2022/01/08 03:12:38;;;;;;;13.40;5.80;;;1.30;99.90;;;;;;5118726;27;20082;-80
2022/01/08 03:15:05;;;;;;;9.05;5.88;;;1.30;99.90;;;;;;5143287;27;20050;-80
2022/01/08 03:17:31;;;;;;;18.10;6.45;;;1.30;99.90;;;;;;5143096;27;20055;-80
2022/01/08 03:20:04;;;;;;;12.43;6.38;;;1.30;99.90;;;;;;5126647;27;20051;-79
2022/01/08 03:22:30;;;;;;;13.68;6.88;;;1.30;99.90;;;;;;5128926;27;20111;-79
2022/01/08 03:24:57;;;;;;;10.35;7.68;;;1.30;99.90;;;;;;5132378;27;20074;-79
2022/01/08 03:27:23;;;;;;;16.45;7.93;;;1.30;99.90;;;;;;5136743;27;20042;-79
2022/01/08 03:29:50;;;;;;;13.40;6.93;;;1.30;99.90;;;;;;5138110;27;20397;-79
2022/01/08 03:32:16;;;;;;;23.98;8.13;;;1.30;99.90;;;;;;5129231;27;20857;-80
2022/01/08 03:34:43;;;;;;;16.63;7.82;;;1.30;99.90;;;;;;5128587;27;20058;-79
2022/01/08 03:37:09;;;;;;;12.30;7.50;;;1.30;99.90;;;;;;5145148;27;20042;-78
2022/01/08 03:39:36;;;;;;;22.33;7.90;;;1.30;99.90;;;;;;5145267;27;20051;-79
2022/01/08 03:42:02;;;;;;;14.23;7.72;;;1.30;99.90;;;;;;5126209;27;20398;-79
2022/01/08 03:44:29;;;;;;;16.27;7.53;;;1.20;99.90;;;;;;5146408;27;20060;-79
2022/01/08 03:47:01;;;;;;;11.40;7.20;;;1.20;99.90;;;;;;5131468;27;20393;-79
2022/01/08 03:49:27;;;;;;;15.95;7.85;;;1.20;99.90;;;;;;5127229;27;20111;-80
2022/01/08 03:51:54;;;;;;;10.05;7.57;;;1.20;99.90;;;;;;5125514;27;20074;-79
2022/01/08 03:54:20;;;;;;;14.88;7.50;;;1.10;99.90;;;;;;5121442;27;20535;-79
2022/01/08 03:56:47;;;;;;;13.13;6.63;;;1.10;99.90;;;;;;5124628;27;20051;-79
2022/01/08 03:59:13;;;;;;;12.13;7.65;;;1.10;99.90;;;;;;5123563;27;20046;-80
2022/01/08 04:01:40;;;;;;;11.40;7.45;;;1.00;99.90;;;;;;5135643;27;20058;-79
2022/01/08 04:04:06;;;;;;;8.95;7.07;;;1.00;99.90;;;;;;5157293;27;20043;-79
2022/01/08 04:06:33;;;;;;;13.35;7.10;;;1.00;99.90;;;;;;5123322;27;20042;-79
2022/01/08 04:09:00;;;;;;;12.13;8.23;;;1.00;99.90;;;;;;5129877;27;20050;-79
2022/01/08 04:11:26;;;;;;;13.80;7.30;;;1.00;99.90;;;;;;5119216;27;20050;-80
2022/01/08 04:13:53;;;;;;;12.85;8.48;;;0.90;99.90;;;;;;5130080;27;20055;-80
2022/01/08 04:16:24;;;;;;;11.40;7.30;;;0.90;99.90;;;;;;5118274;27;20466;-79
2022/01/08 04:18:51;;;;;;;7.57;5.43;;;0.90;99.90;;;;;;5125073;27;20082;-80
2022/01/08 04:21:58;;;;;;;12.55;7.43;;;0.90;99.90;;;;;;5120470;27;20056;-80
2022/01/08 04:24:10;;;;;;;10.95;7.15;;;0.90;99.90;;;;;;5123459;27;20050;-79
2022/01/08 04:26:36;;;;;;;18.85;7.05;;;0.90;99.90;;;;;;5122121;27;20049;-80
2022/01/08 04:29:04;;;;;;;10.98;7.88;;;0.90;99.90;;;;;;5143999;27;20039;-80
2022/01/08 04:31:31;;;;;;;11.25;7.03;;;0.90;99.90;;;;;;5140851;27;20060;-79
2022/01/08 04:33:58;;;;;;;12.43;6.90;;;0.90;99.90;;;;;;5142105;27;20050;-79
2022/01/08 04:36:24;;;;;;;12.13;7.28;;;0.90;99.90;;;;;;5117789;27;20043;-80
2022/01/08 04:38:51;;;;;;;10.43;6.88;;;0.90;99.90;;;;;;5134278;27;20402;-79
2022/01/08 04:41:17;;;;;;;11.18;7.13;;;0.80;99.90;;;;;;5141517;27;20054;-80
2022/01/08 04:43:44;;;;;;;9.57;6.93;;;0.90;99.90;;;;;;5126239;27;20043;-79
2022/01/08 04:46:10;;;;;;;12.15;6.63;;;0.80;99.90;;;;;;5136423;27;20099;-80
2022/01/08 04:48:37;;;;;;;10.63;7.22;;;0.80;99.90;;;;;;5127549;27;20130;-80
2022/01/08 04:51:03;;;;;;;10.38;5.72;;;0.90;99.90;;;;;;5137571;27;20051;-80
2022/01/08 04:53:30;;;;;;;8.77;6.40;;;0.80;99.90;;;;;;5131294;27;20049;-80
2022/01/08 04:55:56;;;;;;;12.82;6.40;;;0.80;99.90;;;;;;5135657;27;20430;-80
2022/01/08 04:58:23;;;;;;;8.43;5.43;;;0.80;99.90;;;;;;5134917;27;20055;-80
2022/01/08 05:00:49;;;;;;;9.52;6.65;;;0.80;99.90;;;;;;5124674;27;20094;-80
2022/01/08 05:03:16;;;;;;;11.98;6.65;;;0.80;99.90;;;;;;5122887;27;20043;-79
2022/01/08 05:05:42;;;;;;;10.35;5.97;;;0.80;99.90;;;;;;5142362;27;20063;-80
2022/01/08 05:08:09;;;;;;;6.68;5.28;;;0.80;99.90;;;;;;5131878;27;20046;-80
2022/01/08 05:10:35;;;;;;;9.07;5.10;;;0.80;99.90;;;;;;5148221;27;20043;-80
2022/01/08 05:13:04;;;;;;;13.57;6.32;;;0.80;99.90;;;;;;5149922;27;20063;-80
2022/01/08 05:15:30;;;;;;;10.52;4.93;;;0.80;99.90;;;;;;5124618;27;20055;-79
2022/01/08 05:17:57;;;;;;;13.38;6.32;;;0.80;99.90;;;;;;5148851;27;20062;-80
2022/01/08 05:20:26;;;;;;;9.98;5.10;;;0.90;99.90;;;;;;5115694;27;20043;-80
2022/01/08 05:22:59;;;;;;;9.60;5.85;;;0.90;99.90;;;;;;5127736;27;20146;-80
2022/01/08 05:25:26;;;;;;;14.48;5.03;;;0.90;99.90;;;;;;5124729;27;20047;-80
2022/01/08 05:27:52;;;;;;;9.15;4.93;;;0.90;99.90;;;;;;5119045;27;20043;-80
2022/01/08 05:30:19;;;;;;;9.27;4.53;;;0.90;99.90;;;;;;5116687;27;20050;-80
2022/01/08 05:32:45;;;;;;;13.32;4.88;;;1.00;99.90;;;;;;5131738;27;20051;-80
2022/01/08 05:35:12;;;;;;;7.60;4.55;;;0.90;99.90;;;;;;5154163;27;20051;-80
2022/01/08 05:37:39;;;;;;;9.48;4.22;;;1.00;99.90;;;;;;5150831;27;20078;-80
2022/01/08 05:40:05;;;;;;;4.85;3.72;;;1.00;99.90;;;;;;5140320;27;20038;-80
2022/01/08 05:42:32;;;;;;;8.57;3.92;;;1.00;99.90;;;;;;5128145;27;20050;-80
2022/01/08 05:44:58;;;;;;;6.78;3.92;;;1.10;99.90;;;;;;5136149;27;20042;-80
2022/01/08 05:47:28;;;;;;;8.32;3.22;;;1.10;99.90;;;;;;5120925;27;20181;-81
2022/01/08 05:49:54;;;;;;;7.18;3.85;;;1.20;99.90;;;;;;5117443;27;20051;-79
2022/01/08 05:52:21;;;;;;;6.60;3.08;;;1.10;99.90;;;;;;5127267;27;20043;-80
2022/01/08 05:54:47;;;;;;;8.30;3.25;;;1.10;99.90;;;;;;5115724;27;20058;-80
2022/01/08 05:57:14;;;;;;;8.27;3.42;;;1.10;99.90;;;;;;5115572;27;20047;-79
2022/01/08 05:59:40;;;;;;;12.65;4.35;;;1.10;99.90;;;;;;5122473;27;20047;-79
2022/01/08 06:02:09;;;;;;;11.45;4.07;;;1.00;99.90;;;;;;5119128;27;20055;-79
2022/01/08 06:04:35;;;;;;;8.05;4.07;;;1.00;99.90;;;;;;5129812;27;20081;-79
2022/01/08 06:07:02;;;;;;;7.85;4.15;;;1.10;99.90;;;;;;5126533;27;20047;-80
2022/01/08 06:09:28;;;;;;;14.98;4.90;;;1.00;99.90;;;;;;5143590;27;20053;-81
2022/01/08 06:11:55;;;;;;;4.82;3.63;;;1.00;99.90;;;;;;5125190;27;20051;-80
2022/01/08 06:14:23;;;;;;;8.82;3.67;;;1.00;99.90;;;;;;5118737;27;20123;-78
2022/01/08 06:16:49;;;;;;;6.78;3.65;;;1.00;99.90;;;;;;5119226;27;20039;-79
2022/01/08 06:19:16;;;;;;;4.25;3.03;;;1.00;99.90;;;;;;5114983;27;20043;-79
2022/01/08 06:21:43;;;;;;;8.18;4.00;;;0.90;99.90;;;;;;5120112;27;20478;-80
2022/01/08 06:24:09;;;;;;;9.85;4.90;;;0.90;99.90;;;;;;5129785;27;20492;-80
2022/01/08 06:26:36;;;;;;;6.05;3.78;;;0.90;99.90;;;;;;5134220;27;20488;-78
2022/01/08 06:29:02;;;;;;;10.52;3.97;;;0.90;99.90;;;;;;5122931;27;20473;-80
2022/01/08 06:31:29;;;;;;;16.52;5.35;;;0.90;99.90;;;;;;5121394;27;20065;-80
2022/01/08 06:33:55;;;;;;;10.38;4.38;;;0.90;99.90;;;;;;5135900;27;20053;-78
2022/01/08 06:36:23;;;;;;;16.33;4.53;;;0.90;99.90;;;;;;5126280;27;20047;-80
2022/01/08 06:38:49;;;;;;;16.27;4.50;;;0.80;99.90;;;;;;5135007;27;20047;-79
2022/01/08 06:41:16;;;;;;;10.32;4.65;;;0.80;99.90;;;;;;5145190;27;20049;-78
2022/01/08 06:43:43;;;;;;;10.15;4.95;;;0.80;99.90;;;;;;5124644;27;20047;-79
2022/01/08 06:46:09;;;;;;;6.80;4.93;;;0.80;99.90;;;;;;5120641;27;20078;-78
2022/01/08 06:48:36;;;;;;;10.43;5.07;;;0.80;99.90;;;;;;5125264;27;20046;-79
2022/01/08 06:51:02;;;;;;;14.57;6.43;;;0.80;99.90;;;;;;5132517;27;20045;-78
2022/01/08 06:53:29;;;;;;;9.30;6.10;;;0.80;99.90;;;;;;5129838;27;20062;-79
2022/01/08 06:55:55;;;;;;;13.57;5.90;;;0.80;99.90;;;;;;5131931;27;20493;-79
2022/01/08 06:58:25;;;;;;;8.80;5.53;;;0.80;99.90;;;;;;5130714;27;20173;-79
2022/01/08 07:00:51;;;;;;;16.52;6.35;;;0.80;99.90;;;;;;5127757;27;20045;-79
2022/01/08 07:03:18;;;;;;;17.55;6.78;;;0.70;99.90;;;;;;5132049;27;20047;-78
2022/01/08 07:05:44;;;;;;;11.55;6.38;;;0.70;99.90;;;;;;5150335;27;20051;-79
2022/01/08 07:08:11;;;;;;;12.35;6.45;;;0.70;99.90;;;;;;5149002;27;20053;-79
2022/01/08 07:10:37;;;;;;;10.27;5.65;;;0.70;99.90;;;;;;5132984;27;20050;-80
2022/01/08 07:13:04;;;;;;;13.30;7.03;;;0.70;99.90;;;;;;5128286;27;20046;-79
2022/01/08 07:15:31;;;;;;;14.48;6.45;;;0.70;99.90;;;;;;5131315;27;20047;-79
2022/01/08 07:17:57;;;;;;;13.30;6.93;;;0.70;99.90;;;;;;5127972;28;20051;-79
2022/01/08 07:20:24;;;;;;;12.40;6.40;;;0.60;99.90;;;;;;5128150;28;20119;-79
2022/01/08 07:22:50;;;;;;;13.07;7.63;;;0.70;99.90;;;;;;5127605;28;20049;-78
2022/01/08 07:25:17;;;;;;;10.05;6.20;;;0.70;99.90;;;;;;5128184;28;20044;-79
2022/01/08 07:27:43;;;;;;;9.20;6.40;;;0.70;99.90;;;;;;5126558;28;20047;-79
2022/01/08 07:30:10;;;;;;;26.75;7.70;;;0.70;99.90;;;;;;5128991;28;20050;-79
2022/01/08 07:32:36;;;;;;;10.65;6.40;;;0.70;99.90;;;;;;5128441;28;20055;-79
2022/01/08 07:35:03;;;;;;;12.20;6.05;;;0.70;99.90;;;;;;5130249;28;20051;-79
2022/01/08 07:37:29;;;;;;;18.10;7.68;;;0.70;99.90;;;;;;5129672;28;20047;-79
2022/01/08 07:39:56;;;;;;;18.58;7.10;;;0.70;99.90;;;;;;5127581;28;20058;-80
2022/01/08 07:42:23;;;;;;;15.43;6.38;;;0.70;99.90;;;;;;5125812;28;20061;-80
2022/01/08 07:44:49;;;;;;;12.13;6.88;;;0.80;99.90;;;;;;5128693;28;20058;-80
2022/01/08 07:47:17;;;;;;;15.27;6.80;;;0.70;99.90;;;;;;5128549;28;20043;-78
2022/01/08 07:49:43;;;;;;;14.23;6.47;;;0.70;99.90;;;;;;5129142;27;20054;-79
2022/01/08 07:52:10;;;;;;;12.27;6.55;;;0.70;99.90;;;;;;5131282;27;20049;-78
2022/01/08 07:54:36;;;;;;;15.25;6.80;;;0.70;99.90;;;;;;5129996;27;20043;-79
2022/01/08 07:57:03;;;;;;;12.18;6.00;;;0.70;99.90;;;;;;5131101;27;20134;-79
2022/01/08 07:59:29;;;;;;;18.63;7.10;;;0.70;99.90;;;;;;5131500;27;20046;-79
2022/01/08 08:01:56;;;;;;;10.77;6.93;;;0.80;99.90;;;;;;5130409;27;20044;-79
2022/01/08 08:04:22;;;;;;;13.88;7.55;;;0.80;99.90;;;;;;5133540;27;20046;-79
2022/01/08 08:06:49;;;;;;;13.00;6.32;;;0.80;99.90;;;;;;5133024;27;20039;-79
2022/01/08 08:09:15;;;;;;;8.85;5.65;;;0.80;99.90;;;;;;5130973;27;20060;-79
2022/01/08 08:11:42;;;;;;;10.68;6.63;;;0.90;99.90;;;;;;5129325;27;20049;-80
2022/01/08 08:14:09;;;;;;;10.77;6.10;;;0.90;99.90;;;;;;5119643;27;20131;-79
2022/01/08 08:16:35;;;;;;;13.30;6.82;;;0.90;99.90;;;;;;5127520;27;20058;-78
2022/01/08 08:19:02;;;;;;;11.32;5.97;;;0.90;99.90;;;;;;5119974;27;20055;-79
2022/01/08 08:21:28;;;;;;;15.75;7.20;;;1.00;99.90;;;;;;5121747;27;20046;-79
2022/01/08 08:23:55;;;;;;;12.55;6.82;;;1.00;99.90;;;;;;5130290;27;20043;-80
2022/01/08 08:26:21;;;;;;;17.20;6.65;;;1.00;99.90;;;;;;5131879;27;20035;-79
2022/01/08 08:28:48;;;;;;;12.95;6.85;;;1.00;99.90;;;;;;5131453;27;20047;-80
2022/01/08 08:31:14;;;;;;;20.73;7.20;;;1.10;99.90;;;;;;5133285;27;20051;-79
2022/01/08 08:33:41;;;;;;;12.82;6.35;;;1.10;99.90;;;;;;5129516;27;20084;-79
2022/01/08 08:36:07;;;;;;;10.68;6.43;;;1.20;99.90;;;;;;5127204;27;20049;-79
2022/01/08 08:38:34;;;;;;;20.50;7.25;;;1.30;99.90;;;;;;5130622;27;20054;-79
2022/01/08 08:41:01;;;;;;;11.73;7.18;;;1.30;99.90;;;;;;5132193;27;20054;-78
2022/01/08 08:43:27;;;;;;;13.07;7.53;;;1.30;99.90;;;;;;5131708;27;20039;-80
2022/01/08 08:45:54;;;;;;;12.00;6.85;;;1.40;99.90;;;;;;5128252;27;20059;-80
2022/01/08 08:48:20;;;;;;;16.63;7.78;;;1.50;99.90;;;;;;5131969;27;20104;-79
2022/01/08 08:50:47;;;;;;;12.52;5.82;;;1.50;99.90;;;;;;5128541;27;20094;-80
2022/01/08 08:53:13;;;;;;;15.32;6.50;;;1.60;99.90;;;;;;5132086;27;20039;-80
2022/01/08 08:55:40;;;;;;;10.75;6.22;;;1.60;99.90;;;;;;5131387;27;20055;-80
2022/01/08 08:58:06;;;;;;;15.38;6.22;;;1.70;99.90;;;;;;5132562;27;20105;-79
2022/01/08 09:00:33;;;;;;;9.48;5.82;;;1.80;99.90;;;;;;5130439;27;20043;-80
2022/01/08 09:02:59;;;;;;;10.05;6.45;;;1.90;99.90;;;;;;5129916;27;20467;-78
2022/01/08 09:05:26;;;;;;;8.85;5.70;;;1.90;99.90;;;;;;5132043;27;20079;-78
2022/01/08 09:07:53;;;;;;;7.88;6.13;;;2.00;99.90;;;;;;5131273;27;20055;-79
2022/01/08 09:10:23;;;;;;;8.25;5.57;;;2.00;99.90;;;;;;5130175;27;20054;-79
2022/01/08 09:12:49;;;;;;;8.15;4.90;;;2.00;99.90;;;;;;5130299;27;20068;-79
2022/01/08 09:15:16;;;;;;;16.35;6.60;;;2.10;99.90;;;;;;5130240;27;20051;-78
2022/01/08 09:17:42;;;;;;;7.82;4.93;;;2.10;99.90;;;;;;5130500;27;20055;-78
2022/01/08 09:20:09;;;;;;;10.82;6.30;;;2.20;99.90;;;;;;5135786;27;20055;-78
2022/01/08 09:22:35;;;;;;;12.90;5.57;;;2.20;99.90;;;;;;5135636;27;20058;-78
2022/01/08 09:25:02;;;;;;;11.50;5.53;;;2.20;99.90;;;;;;5132647;27;20054;-77
2022/01/08 09:27:28;;;;;;;12.10;4.78;;;2.20;99.90;;;;;;5130470;27;20050;-77
2022/01/08 09:29:55;;;;;;;12.38;5.18;;;2.20;99.90;;;;;;5129345;27;20039;-78
2022/01/08 09:32:23;;;;;;;10.27;5.22;;;2.20;99.90;;;;;;5131219;27;20039;-78
2022/01/08 09:34:49;;;;;;;18.80;5.78;;;2.40;99.90;;;;;;5130150;27;20084;-79
2022/01/08 09:37:16;;;;;;;9.50;5.72;;;2.40;99.90;;;;;;5131187;27;20058;-78
2022/01/08 09:39:43;;;;;;;14.30;6.32;;;2.50;99.90;;;;;;5130562;27;20062;-78
2022/01/08 09:42:09;;;;;;;13.15;5.72;;;2.50;99.90;;;;;;5125816;27;20525;-78
2022/01/08 09:44:37;;;;;;;15.50;6.28;;;2.50;99.90;;;;;;5129941;27;21555;-79
2022/01/08 09:47:04;;;;;;;9.52;6.00;;;2.60;99.90;;;;;;5129545;27;20130;-79
2022/01/08 09:49:30;;;;;;;10.00;5.07;;;2.70;99.90;;;;;;5125310;27;20047;-79
2022/01/08 09:51:57;;;;;;;9.35;5.90;;;2.70;99.90;;;;;;5125537;27;20043;-79
2022/01/08 09:54:24;;;;;;;12.68;6.03;;;2.80;99.90;;;;;;5131550;27;20042;-79
2022/01/08 09:56:51;;;;;;;17.02;5.53;;;2.80;99.90;;;;;;5130761;27;20091;-80
2022/01/08 09:59:17;;;;;;;11.57;5.28;;;2.80;99.90;;;;;;5127447;27;20130;-79
2022/01/08 10:01:44;;;;;;;6.20;4.28;;;2.80;99.90;;;;;;5127630;27;20054;-79
2022/01/08 10:04:11;;;;;;;10.85;5.93;;;2.80;99.90;;;;;;5118300;27;20039;-79
2022/01/08 10:06:37;;;;;;;9.73;5.20;;;2.80;99.90;;;;;;5133280;27;20053;-80
2022/01/08 10:09:04;;;;;;;15.40;6.70;;;2.80;99.90;;;;;;5126144;27;20135;-78
2022/01/08 10:11:31;;;;;;;13.63;6.13;;;2.90;99.90;;;;;;5117061;27;20040;-79
2022/01/08 10:14:02;;;;;;;12.00;5.65;;;3.00;99.90;;;;;;5126437;27;20051;-81
2022/01/08 10:19:13;;;;;;;10.65;4.95;;;3.10;99.90;;;;;;5125480;27;20059;-79
2022/01/08 10:21:39;;;;;;;8.07;5.55;;;3.10;99.90;;;;;;5127603;27;20044;-80
2022/01/08 10:24:08;;;;;;;11.65;5.18;;;3.10;99.90;;;;;;5127558;27;20126;-81
2022/01/08 10:26:34;;;;;;;10.55;5.57;;;3.10;99.90;;;;;;5132433;27;20058;-81
2022/01/08 10:29:01;;;;;;;12.95;6.20;;;3.00;99.90;;;;;;5127987;27;20399;-80
2022/01/08 10:31:28;;;;;;;13.00;5.57;;;2.90;99.90;;;;;;5126229;27;20049;-80
2022/01/08 10:33:54;;;;;;;10.18;5.82;;;3.00;99.90;;;;;;5127990;27;20047;-80
2022/01/08 10:36:21;;;;;;;10.63;6.22;;;2.90;99.90;;;;;;5125789;27;20441;-80
2022/01/08 10:38:47;;;;;;;16.20;6.15;;;2.90;99.90;;;;;;5124766;27;20593;-79
2022/01/08 10:41:14;;;;;;;11.25;6.10;;;2.90;99.90;;;;;;5117681;27;20050;-80
2022/01/08 10:43:40;;;;;;;24.92;7.18;;;2.80;99.90;;;;;;5125712;27;20044;-80
2022/01/08 10:46:07;;;;;;;13.43;5.78;;;2.80;99.90;;;;;;5125198;27;20053;-80
2022/01/08 10:48:33;;;;;;;10.32;5.63;;;2.80;99.90;;;;;;5129819;27;20043;-79
2022/01/08 10:51:00;;;;;;;10.52;6.15;;;2.70;99.90;;;;;;5126519;27;20050;-81
2022/01/08 10:53:27;;;;;;;14.85;6.32;;;2.70;99.90;;;;;;5128317;27;20052;-80
2022/01/08 10:55:53;;;;;;;10.38;6.75;;;2.70;99.90;;;;;;5125688;27;20040;-80
2022/01/08 10:58:21;;;;;;;16.90;6.88;;;2.70;99.90;;;;;;5130931;27;20050;-80
2022/01/08 11:00:48;;;;;;;23.15;7.30;;;2.70;99.90;;;;;;5125334;27;20043;-80
2022/01/08 11:03:14;;;;;;;9.93;6.80;;;2.70;99.90;;;;;;5127758;27;20743;-79
2022/01/08 11:05:41;;;;;;;12.15;6.80;;;2.70;99.90;;;;;;5126974;28;20051;-80
2022/01/08 11:08:07;;;;;;;20.20;8.68;;;2.70;99.90;;;;;;5128490;28;20043;-80
2022/01/08 11:10:34;;;;;;;12.38;8.05;;;2.70;99.90;;;;;;5127444;28;20058;-79
2022/01/08 11:13:00;;;;;;;16.55;7.55;;;2.70;99.90;;;;;;5126770;28;20047;-80
2022/01/08 11:15:48;;;;;;;15.40;8.02;;;2.60;99.90;;;;;;5126949;28;20058;-80
2022/01/08 11:18:15;;;;;;;13.82;7.60;;;2.60;99.90;;;;;;5126461;28;20108;-79
2022/01/08 11:20:41;;;;;;;13.85;9.13;;;2.60;99.90;;;;;;5127705;28;20043;-79
2022/01/08 11:23:08;;;;;;;10.52;8.18;;;2.60;99.90;;;;;;5130054;28;20130;-80
2022/01/08 11:25:34;;;;;;;20.35;9.38;;;2.60;99.90;;;;;;5129269;27;20039;-79
2022/01/08 11:28:01;;;;;;;16.52;9.85;;;2.60;99.90;;;;;;5131559;27;20062;-80
2022/01/08 11:30:27;;;;;;;13.73;9.57;;;2.60;99.90;;;;;;5131124;27;20039;-80
2022/01/08 11:32:55;;;;;;;16.30;10.55;;;2.60;99.90;;;;;;5127585;27;20044;-80
2022/01/08 11:35:23;;;;;;;17.77;11.60;;;2.60;99.90;;;;;;5128810;27;20050;-80
2022/01/08 11:37:50;;;;;;;14.63;8.80;;;2.70;99.90;;;;;;5134761;27;20047;-80
2022/01/08 11:40:17;;;;;;;16.70;9.05;;;2.70;99.90;;;;;;5133130;27;20075;-80
2022/01/08 11:42:43;;;;;;;19.27;9.90;;;2.70;99.90;;;;;;5129819;27;20035;-77
2022/01/08 11:45:10;;;;;;;19.60;10.73;;;2.70;99.90;;;;;;5131306;27;20062;-80
2022/01/08 11:47:36;;;;;;;21.35;9.65;;;2.80;99.90;;;;;;5130592;27;20058;-78
2022/01/08 11:50:03;;;;;;;15.98;10.43;;;2.90;99.90;;;;;;5128616;27;20065;-80
2022/01/08 11:52:29;;;;;;;16.25;9.95;;;2.90;99.90;;;;;;5120215;27;20043;-79
2022/01/08 11:54:56;;;;;;;16.42;9.80;;;3.00;99.90;;;;;;5131558;27;20067;-79
2022/01/08 11:57:22;;;;;;;22.63;11.60;;;3.10;99.90;;;;;;5134757;27;20043;-80
2022/01/08 11:59:49;;;;;;;20.00;11.27;;;3.10;99.90;;;;;;5129880;27;20058;-79
2022/01/08 12:02:16;;;;;;;16.90;10.48;;;3.10;99.90;;;;;;5144148;27;20043;-80
2022/01/08 12:04:44;;;;;;;18.73;11.27;;;3.20;99.90;;;;;;5130573;27;20467;-80
2022/01/08 12:07:11;;;;;;;17.60;10.68;;;3.20;99.90;;;;;;5124159;27;20149;-80
2022/01/08 12:09:40;;;;;;;21.83;11.52;;;3.20;99.90;;;;;;5127888;27;20474;-80
2022/01/08 12:12:06;;;;;;;23.63;11.45;;;3.20;99.90;;;;;;5129129;27;20050;-79
2022/01/08 12:14:33;;;;;;;18.15;10.95;;;3.20;99.90;;;;;;5124877;27;20043;-80
2022/01/08 12:16:59;;;;;;;17.60;11.07;;;3.20;99.90;;;;;;5130530;27;20048;-79
2022/01/08 12:19:26;;;;;;;20.40;11.00;;;3.10;99.90;;;;;;5117310;27;20163;-80
2022/01/08 12:21:52;;;;;;;19.17;9.68;;;3.20;99.90;;;;;;5127468;27;20058;-80
2022/01/08 12:24:19;;;;;;;17.13;9.93;;;3.20;99.90;;;;;;5147326;27;20057;-80
2022/01/08 12:26:46;;;;;;;24.25;11.35;;;3.10;99.90;;;;;;5144973;27;20043;-80
2022/01/08 12:29:12;;;;;;;19.40;10.57;;;3.10;99.90;;;;;;5147367;27;20061;-79
2022/01/08 12:31:42;;;;;;;19.08;11.25;;;3.00;99.90;;;;;;5122109;27;20051;-80
2022/01/08 12:34:10;;;;;;;17.73;10.52;;;3.00;99.90;;;;;;5146886;27;20054;-80
2022/01/08 12:36:37;;;;;;;13.50;10.13;;;3.10;99.90;;;;;;5130106;27;20058;-80
2022/01/08 12:39:03;;;;;;;18.42;10.35;;;3.10;99.90;;;;;;5138363;27;20054;-80
2022/01/08 12:41:30;;;;;;;20.83;11.13;;;3.10;99.90;;;;;;5130052;27;20047;-80
2022/01/08 12:43:57;;;;;;;17.65;10.90;;;3.10;99.90;;;;;;5136677;27;20050;-80
2022/01/08 12:46:23;;;;;;;22.77;12.68;;;3.10;99.90;;;;;;5124534;27;20039;-79
2022/01/08 12:48:50;;;;;;;21.70;12.43;;;3.10;99.90;;;;;;5123973;27;20123;-80
2022/01/08 12:51:17;;;;;;;19.67;12.35;;;3.10;99.90;;;;;;5121051;27;20085;-80
2022/01/08 12:53:44;;;;;;;19.05;12.35;;;3.10;99.90;;;;;;5124101;27;20427;-80
2022/01/08 12:56:10;;;;;;;17.30;12.07;;;3.10;99.90;;;;;;5152440;27;20046;-79
2022/01/08 12:58:37;;;;;;;18.80;12.20;;;3.20;99.90;;;;;;5125349;27;20051;-80
2022/01/08 13:01:04;;;;;;;22.23;12.85;;;3.10;99.90;;;;;;5136545;27;20051;-79